In Rescue
 
Open Full Screen Window  High Contrast Mode
Wind Gusting 00 knots
07
March 01, 2024 2:49 PM EST
Weather Information
Wind Direction
  120 °
Wind Speed
  07 kt (8 mph)
Wind Gust
  00 kt (0 mph)
Variable Wind
090°
170°
Altimeter
30.21 in
Visibility
10 SM
Temperature
06° C
43° F
Dewpoint
-06° C
21° F
Humidity
42%
Sky Condition
Clear
VFR

METAR KTTF 011949Z AUTO 12007KT 090V170 10SM CLR 06/M06 A3021 RMK AO2 T00551063

FAA Disclaimer: The data displayed is for advisory purposes only and is not to be used for flight planning or operations.